createdAt,value
2022-11-15T00:01:39.709Z,93957.00
2022-11-15T00:04:09.094Z,93956.00
2022-11-15T00:06:38.800Z,93962.00
2022-11-15T00:09:05.837Z,93949.00
2022-11-15T00:11:34.929Z,93949.00
2022-11-15T00:14:03.420Z,93954.00
2022-11-15T00:16:30.633Z,93948.00
2022-11-15T00:19:01.002Z,93948.00
2022-11-15T00:21:28.357Z,93942.00
2022-11-15T00:23:55.714Z,93937.00
2022-11-15T00:26:25.189Z,93943.00
2022-11-15T00:28:54.185Z,93940.00
2022-11-15T00:31:22.034Z,93942.00
2022-11-15T00:33:49.097Z,93936.00
2022-11-15T00:36:17.139Z,93937.00
2022-11-15T00:38:44.265Z,93932.00
2022-11-15T00:41:11.422Z,93932.00
2022-11-15T00:43:38.424Z,93930.00
2022-11-15T00:46:05.576Z,93933.00
2022-11-15T00:48:32.815Z,93919.00
2022-11-15T00:50:59.858Z,93919.00
2022-11-15T00:53:27.532Z,93910.00
2022-11-15T00:55:57.867Z,93908.00
2022-11-15T00:58:24.875Z,93913.00
2022-11-15T01:00:54.545Z,93912.00
2022-11-15T01:03:21.936Z,93905.00
2022-11-15T01:05:48.851Z,93910.00
2022-11-15T01:08:17.127Z,93904.00
2022-11-15T01:10:46.219Z,93904.00
2022-11-15T01:13:18.770Z,93908.00
2022-11-15T01:15:45.920Z,93911.00
2022-11-15T01:18:12.841Z,93898.00
2022-11-15T01:20:46.436Z,93900.00
2022-11-15T01:23:13.246Z,93891.00
2022-11-15T01:25:43.068Z,93891.00
2022-11-15T01:28:10.000Z,93907.00
2022-11-15T01:30:37.820Z,93907.00
2022-11-15T01:33:04.825Z,93894.00
2022-11-15T01:35:31.722Z,93894.00
2022-11-15T01:37:58.668Z,93891.00
2022-11-15T01:40:25.608Z,93891.00
2022-11-15T01:42:52.484Z,93891.00
2022-11-15T01:45:22.383Z,93889.00
2022-11-15T01:47:55.360Z,93883.00
2022-11-15T01:50:30.579Z,93894.00
2022-11-15T01:52:57.543Z,93878.00
2022-11-15T01:55:28.032Z,93883.00
2022-11-15T01:58:00.794Z,93876.00
2022-11-15T02:00:28.322Z,93871.00
2022-11-15T02:02:58.292Z,93871.00
2022-11-15T02:05:25.215Z,93874.00
2022-11-15T02:07:52.811Z,93863.00
2022-11-15T02:10:25.843Z,93859.00
2022-11-15T02:12:58.118Z,93857.00
2022-11-15T02:15:33.411Z,93842.00
2022-11-15T02:18:27.847Z,93842.00
2022-11-15T02:21:18.975Z,93854.00
2022-11-15T02:23:57.947Z,93850.00
2022-11-15T02:26:55.479Z,93843.00
2022-11-15T02:30:15.662Z,93836.00
2022-11-15T02:33:18.935Z,93837.00
2022-11-15T02:36:16.890Z,93831.00
2022-11-15T02:39:01.647Z,93834.00
2022-11-15T02:41:39.658Z,93821.00
2022-11-15T02:44:16.920Z,93828.00
2022-11-15T02:47:11.328Z,93841.00
2022-11-15T02:49:48.602Z,93821.00
2022-11-15T02:52:26.254Z,93823.00
2022-11-15T02:55:01.649Z,93828.00
2022-11-15T02:58:19.390Z,93830.00
2022-11-15T03:01:28.248Z,93803.00
2022-11-15T03:04:04.601Z,93816.00
2022-11-15T03:06:47.940Z,93792.00
2022-11-15T03:09:41.752Z,93808.00
2022-11-15T03:12:16.789Z,93804.00
2022-11-15T03:15:42.707Z,93804.00
2022-11-15T03:18:26.319Z,93807.00
2022-11-15T03:20:54.440Z,93796.00
2022-11-15T03:23:26.840Z,93797.00
2022-11-15T03:26:02.249Z,93790.00
2022-11-15T03:28:45.381Z,93782.00
2022-11-15T03:31:33.637Z,93769.00
2022-11-15T03:34:05.759Z,93781.00
2022-11-15T03:36:35.241Z,93777.00
2022-11-15T03:39:06.852Z,93770.00
2022-11-15T03:42:04.752Z,93780.00
2022-11-15T03:44:51.078Z,93770.00
2022-11-15T03:47:47.004Z,93767.00
2022-11-15T03:50:21.124Z,93761.00
2022-11-15T03:52:51.628Z,93766.00
2022-11-15T03:55:22.865Z,93768.00
2022-11-15T03:58:00.448Z,93772.00
2022-11-15T04:00:28.499Z,93772.00
2022-11-15T04:02:55.588Z,93765.00
2022-11-15T04:05:27.579Z,93768.00
2022-11-15T04:07:54.487Z,93764.00
2022-11-15T04:10:21.616Z,93761.00
2022-11-15T04:12:48.567Z,93761.00
2022-11-15T04:15:22.720Z,93764.00
2022-11-15T04:17:56.192Z,93766.00
2022-11-15T04:20:46.261Z,93755.00
2022-11-15T04:23:41.131Z,93766.00
2022-11-15T04:26:13.165Z,93762.00
2022-11-15T04:28:58.366Z,93761.00
2022-11-15T04:31:25.465Z,93754.00
2022-11-15T04:33:55.168Z,93759.00
2022-11-15T04:36:43.863Z,93762.00
2022-11-15T04:39:13.224Z,93750.00
2022-11-15T04:41:40.109Z,93747.00
2022-11-15T04:44:06.999Z,93744.00
2022-11-15T04:46:34.148Z,93743.00
2022-11-15T04:49:01.130Z,93746.00
2022-11-15T04:51:28.025Z,93737.00
2022-11-15T04:53:55.001Z,93744.00
2022-11-15T04:56:21.907Z,93741.00
2022-11-15T04:58:51.891Z,93750.00
2022-11-15T05:01:21.503Z,93751.00
2022-11-15T05:04:07.152Z,93751.00
2022-11-15T05:06:34.172Z,93727.00
2022-11-15T05:09:01.029Z,93749.00
2022-11-15T05:11:28.391Z,93744.00
2022-11-15T05:13:57.907Z,93744.00
2022-11-15T05:16:24.839Z,93742.00
2022-11-15T05:18:54.020Z,93750.00
2022-11-15T05:21:21.305Z,93748.00
2022-11-15T05:23:48.499Z,93739.00
2022-11-15T05:26:19.411Z,93735.00
2022-11-15T05:28:48.787Z,93728.00
2022-11-15T05:31:17.310Z,93732.00
2022-11-15T05:33:47.822Z,93727.00
2022-11-15T05:36:40.016Z,93729.00
2022-11-15T05:39:12.071Z,93730.00
2022-11-15T05:41:45.725Z,93726.00
2022-11-15T05:44:16.200Z,93715.00
2022-11-15T05:46:43.920Z,93718.00
2022-11-15T05:49:16.638Z,93714.00
2022-11-15T05:51:47.024Z,93720.00
2022-11-15T05:54:18.934Z,93720.00
2022-11-15T05:56:46.194Z,93729.00
2022-11-15T05:59:15.696Z,93728.00
2022-11-15T06:01:42.728Z,93722.00
2022-11-15T06:04:09.760Z,93725.00
2022-11-15T06:06:36.702Z,93725.00
2022-11-15T06:09:06.050Z,93720.00
2022-11-15T06:11:37.569Z,93733.00
2022-11-15T06:14:06.627Z,93723.00
2022-11-15T06:16:35.584Z,93729.00
2022-11-15T06:19:02.521Z,93722.00
2022-11-15T06:21:30.122Z,93711.00
2022-11-15T06:23:57.011Z,93714.00
2022-11-15T06:26:26.559Z,93719.00
2022-11-15T06:28:53.511Z,93722.00
2022-11-15T06:31:20.383Z,93722.00
2022-11-15T06:33:50.410Z,93712.00
2022-11-15T06:36:18.221Z,93715.00
2022-11-15T06:38:47.940Z,93711.00
2022-11-15T06:41:21.984Z,93714.00
2022-11-15T06:43:48.912Z,93717.00
2022-11-15T06:46:18.796Z,93718.00
2022-11-15T06:48:45.704Z,93714.00
2022-11-15T06:51:12.643Z,93718.00
2022-11-15T06:53:39.594Z,93721.00
2022-11-15T06:56:11.166Z,93714.00
2022-11-15T06:58:40.419Z,93722.00
2022-11-15T07:01:11.220Z,93721.00
2022-11-15T07:03:46.324Z,93720.00
2022-11-15T07:06:15.354Z,93714.00
2022-11-15T07:08:44.737Z,93720.00
2022-11-15T07:11:16.213Z,93714.00
2022-11-15T07:13:43.225Z,93706.00
2022-11-15T07:16:11.990Z,93692.00
2022-11-15T07:18:40.906Z,93706.00
2022-11-15T07:21:11.074Z,93718.00
2022-11-15T07:23:39.381Z,93701.00
2022-11-15T07:26:09.525Z,93700.00
2022-11-15T07:28:39.175Z,93711.00
2022-11-15T07:31:09.116Z,93709.00
2022-11-15T07:33:38.821Z,93701.00
2022-11-15T07:36:12.807Z,93704.00
2022-11-15T07:38:43.126Z,93706.00
2022-11-15T07:41:10.353Z,93709.00
2022-11-15T07:43:37.152Z,93710.00
2022-11-15T07:46:10.468Z,93702.00
2022-11-15T07:48:45.398Z,93701.00
2022-11-15T07:51:15.165Z,93706.00
2022-11-15T07:53:45.054Z,93702.00
2022-11-15T07:56:12.856Z,93690.00
2022-11-15T07:58:39.765Z,93685.00
2022-11-15T08:01:08.718Z,93696.00
2022-11-15T08:03:38.700Z,93696.00
2022-11-15T08:06:06.035Z,93690.00
2022-11-15T08:08:32.939Z,93694.00
2022-11-15T08:11:00.691Z,93699.00
2022-11-15T08:13:27.919Z,93694.00
2022-11-15T08:16:06.462Z,93690.00
2022-11-15T08:18:35.989Z,93684.00
2022-11-15T08:21:03.383Z,93680.00
2022-11-15T08:23:30.879Z,93674.00
2022-11-15T08:26:03.685Z,93677.00
2022-11-15T08:28:33.702Z,93671.00
2022-11-15T08:31:00.618Z,93669.00
2022-11-15T08:33:28.953Z,93672.00
2022-11-15T08:36:00.844Z,93668.00
2022-11-15T08:38:30.284Z,93678.00
2022-11-15T08:41:05.072Z,93634.00
2022-11-15T08:43:32.218Z,93670.00
2022-11-15T08:46:02.418Z,93664.00
2022-11-15T08:48:30.831Z,93659.00
2022-11-15T08:50:58.465Z,93655.00
2022-11-15T08:53:25.386Z,93658.00
2022-11-15T08:55:52.263Z,93654.00
2022-11-15T08:58:26.255Z,93651.00
2022-11-15T09:00:55.623Z,93643.00
2022-11-15T09:03:22.556Z,93637.00
2022-11-15T09:05:49.518Z,93643.00
2022-11-15T09:08:40.858Z,93643.00
2022-11-15T09:11:15.660Z,93638.00
2022-11-15T09:13:44.818Z,93645.00
2022-11-15T09:16:13.638Z,93644.00
2022-11-15T09:18:42.738Z,93648.00
2022-11-15T09:21:10.323Z,93647.00
2022-11-15T09:23:39.808Z,93646.00
2022-11-15T09:26:09.824Z,93646.00
2022-11-15T09:28:37.418Z,93643.00
2022-11-15T09:31:09.170Z,93639.00
2022-11-15T09:33:36.995Z,93639.00
2022-11-15T09:36:15.883Z,93640.00
2022-11-15T09:38:42.798Z,93632.00
2022-11-15T09:41:15.859Z,93637.00
2022-11-15T09:43:51.586Z,93633.00
2022-11-15T09:46:50.326Z,93628.00
2022-11-15T09:49:18.310Z,93632.00
2022-11-15T09:51:51.091Z,93632.00
2022-11-15T09:54:52.831Z,93621.00
2022-11-15T09:57:36.105Z,93620.00
2022-11-15T10:03:23.524Z,93608.00
2022-11-15T10:05:59.085Z,93606.00
2022-11-15T10:08:35.632Z,93612.00
2022-11-15T10:14:10.147Z,93604.00
2022-11-15T10:16:51.902Z,93610.00
2022-11-15T10:19:39.758Z,93604.00
2022-11-15T10:22:20.982Z,93601.00
2022-11-15T10:24:48.943Z,93596.00
2022-11-15T10:27:20.151Z,93594.00
2022-11-15T10:29:51.576Z,93585.00
2022-11-15T10:32:21.974Z,93589.00
2022-11-15T10:34:52.118Z,93582.00
2022-11-15T10:37:33.118Z,93583.00
2022-11-15T10:40:17.313Z,93581.00
2022-11-15T10:42:46.919Z,93581.00
2022-11-15T10:45:34.167Z,93575.00
2022-11-15T10:48:15.305Z,93576.00
2022-11-15T10:50:45.786Z,93565.00
2022-11-15T10:53:45.146Z,93572.00
2022-11-15T10:56:22.484Z,93569.00
2022-11-15T10:58:58.140Z,93560.00
2022-11-15T11:01:29.758Z,93564.00
2022-11-15T11:04:10.113Z,93559.00
2022-11-15T11:06:50.369Z,93559.00
2022-11-15T11:09:34.719Z,93552.00
2022-11-15T11:12:06.251Z,93551.00
2022-11-15T11:14:35.663Z,93540.00
2022-11-15T11:17:30.410Z,93545.00
2022-11-15T11:20:23.473Z,93541.00
2022-11-15T11:23:14.063Z,93535.00
2022-11-15T11:26:24.847Z,93531.00
2022-11-15T11:29:45.667Z,93530.00
2022-11-15T11:32:20.599Z,93530.00
2022-11-15T11:35:39.186Z,93538.00
2022-11-15T11:38:35.935Z,93533.00
2022-11-15T11:41:14.783Z,93536.00
2022-11-15T11:44:11.080Z,93524.00
2022-11-15T11:47:15.471Z,93528.00
2022-11-15T11:50:09.606Z,93521.00
2022-11-15T11:52:44.530Z,93519.00
2022-11-15T11:55:38.878Z,93524.00
2022-11-15T11:58:20.816Z,93513.00
2022-11-15T12:01:13.173Z,93517.00
2022-11-15T12:03:54.143Z,93513.00
2022-11-15T12:06:57.570Z,93519.00
2022-11-15T12:09:36.684Z,93514.00
2022-11-15T12:12:22.382Z,93512.00
2022-11-15T12:15:10.693Z,93506.00
2022-11-15T12:17:39.802Z,93507.00
2022-11-15T12:20:21.648Z,93501.00
2022-11-15T12:22:57.194Z,93492.00
2022-11-15T12:25:31.911Z,93490.00
2022-11-15T12:28:20.965Z,93498.00
2022-11-15T12:30:57.674Z,93491.00
2022-11-15T12:33:41.402Z,93482.00
2022-11-15T12:36:23.377Z,93482.00
2022-11-15T12:38:58.953Z,93474.00
2022-11-15T12:41:31.683Z,93463.00
2022-11-15T12:44:02.212Z,93462.00
2022-11-15T12:46:32.035Z,93453.00
2022-11-15T12:49:22.204Z,93443.00
2022-11-15T12:51:49.006Z,93445.00
2022-11-15T12:54:24.849Z,93436.00
2022-11-15T12:57:03.961Z,93444.00
2022-11-15T12:59:55.776Z,93437.00
2022-11-15T13:02:25.975Z,93432.00
2022-11-15T13:04:58.743Z,93425.00
2022-11-15T13:07:41.022Z,93418.00
2022-11-15T13:10:16.279Z,93414.00
2022-11-15T13:12:46.207Z,93409.00
2022-11-15T13:15:13.016Z,93399.00
2022-11-15T13:17:48.147Z,93401.00
2022-11-15T13:20:17.607Z,93396.00
2022-11-15T13:23:05.408Z,93391.00
2022-11-15T13:25:40.944Z,93384.00
2022-11-15T13:28:16.903Z,93383.00
2022-11-15T13:30:56.179Z,93383.00
2022-11-15T13:33:37.342Z,93384.00
2022-11-15T13:36:17.685Z,93379.00
2022-11-15T13:38:45.059Z,93380.00
2022-11-15T13:41:17.898Z,93383.00
2022-11-15T13:43:44.834Z,93390.00
2022-11-15T13:46:24.160Z,93371.00
2022-11-15T13:49:00.632Z,93384.00
2022-11-15T13:51:52.004Z,93381.00
2022-11-15T13:54:44.967Z,93381.00
2022-11-15T13:57:31.322Z,93382.00
2022-11-15T14:00:06.219Z,93385.00
2022-11-15T14:02:37.301Z,93381.00
2022-11-15T14:05:18.531Z,93373.00
2022-11-15T14:08:23.963Z,93378.00
2022-11-15T14:11:11.689Z,93380.00
2022-11-15T14:13:38.765Z,93368.00
2022-11-15T14:16:25.527Z,93375.00
2022-11-15T14:18:56.404Z,93378.00
2022-11-15T14:21:25.836Z,93378.00
2022-11-15T14:23:52.742Z,93376.00
2022-11-15T14:26:33.811Z,93364.00
2022-11-15T14:29:30.952Z,93367.00
2022-11-15T14:32:40.736Z,93354.00
2022-11-15T14:35:21.186Z,93353.00
2022-11-15T14:37:48.684Z,93348.00
2022-11-15T14:40:24.261Z,93354.00
2022-11-15T14:42:53.882Z,93342.00
2022-11-15T14:45:23.460Z,93345.00
2022-11-15T14:47:52.449Z,93341.00
2022-11-15T14:50:23.935Z,93336.00
2022-11-15T14:52:50.689Z,93345.00
2022-11-15T14:55:26.529Z,93345.00
2022-11-15T14:57:55.974Z,93341.00
2022-11-15T15:00:23.633Z,93327.00
2022-11-15T15:02:55.244Z,93337.00
2022-11-15T15:05:34.186Z,93332.00
2022-11-15T15:08:01.909Z,93321.00
2022-11-15T15:10:40.741Z,93320.00
2022-11-15T15:13:24.045Z,93312.00
2022-11-15T15:15:52.771Z,93303.00
2022-11-15T15:18:24.696Z,93310.00
2022-11-15T15:21:07.871Z,93294.00
2022-11-15T15:23:36.583Z,93293.00
2022-11-15T15:26:03.807Z,93285.00
2022-11-15T15:28:35.069Z,93280.00
2022-11-15T15:31:02.929Z,93282.00
2022-11-15T15:33:29.757Z,93282.00
2022-11-15T15:35:58.889Z,93287.00
2022-11-15T15:38:26.054Z,93274.00
2022-11-15T15:40:57.465Z,93275.00
2022-11-15T15:43:24.322Z,93272.00
2022-11-15T15:45:53.721Z,93268.00
2022-11-15T15:48:20.611Z,93269.00
2022-11-15T15:50:48.259Z,93262.00
2022-11-15T15:53:15.177Z,93263.00
2022-11-15T15:55:44.781Z,93268.00
2022-11-15T15:58:13.949Z,93254.00
2022-11-15T16:00:43.793Z,93254.00
2022-11-15T16:03:12.905Z,93256.00
2022-11-15T16:05:41.061Z,93251.00
2022-11-15T16:08:22.521Z,93247.00
2022-11-15T16:10:51.838Z,93243.00
2022-11-15T16:13:20.789Z,93246.00
2022-11-15T16:15:53.494Z,93237.00
2022-11-15T16:18:22.886Z,93229.00
2022-11-15T16:20:52.970Z,93231.00
2022-11-15T16:23:24.630Z,93229.00
2022-11-15T16:25:58.772Z,93230.00
2022-11-15T16:28:32.368Z,93220.00
2022-11-15T16:31:15.563Z,93221.00
2022-11-15T16:33:42.517Z,93224.00
2022-11-15T16:36:33.634Z,93222.00
2022-11-15T16:39:06.371Z,93214.00
2022-11-15T16:41:33.884Z,93216.00
2022-11-15T16:44:00.913Z,93213.00
2022-11-15T16:46:29.925Z,93199.00
2022-11-15T16:48:59.567Z,93210.00
2022-11-15T16:51:26.496Z,93205.00
2022-11-15T16:53:53.342Z,93201.00
2022-11-15T16:56:31.074Z,93199.00
2022-11-15T16:59:02.458Z,93200.00
2022-11-15T17:01:35.915Z,93185.00
2022-11-15T17:04:13.236Z,93198.00
2022-11-15T17:06:44.369Z,93193.00
2022-11-15T17:09:26.221Z,93188.00
2022-11-15T17:11:55.712Z,93173.00
2022-11-15T17:14:22.845Z,93178.00
2022-11-15T17:16:51.976Z,93179.00
2022-11-15T17:19:21.884Z,93177.00
2022-11-15T17:21:49.722Z,93180.00
2022-11-15T17:24:21.151Z,93177.00
2022-11-15T17:26:48.152Z,93176.00
2022-11-15T17:29:17.240Z,93181.00
2022-11-15T17:31:46.420Z,93186.00
2022-11-15T17:34:15.817Z,93176.00
2022-11-15T17:36:42.660Z,93178.00
2022-11-15T17:39:11.879Z,93170.00
2022-11-15T17:41:38.832Z,93173.00
2022-11-15T17:44:05.673Z,93167.00
2022-11-15T17:46:36.369Z,93168.00
2022-11-15T17:49:06.163Z,93160.00
2022-11-15T17:51:36.255Z,93161.00
2022-11-15T17:54:03.308Z,93163.00
2022-11-15T17:56:32.965Z,93161.00
2022-11-15T17:59:05.701Z,93159.00
2022-11-15T18:01:40.348Z,93155.00
2022-11-15T18:04:10.565Z,93153.00
2022-11-15T18:06:37.904Z,93156.00
2022-11-15T18:09:08.397Z,93142.00
2022-11-15T18:11:41.848Z,93151.00
2022-11-15T18:14:16.623Z,93153.00
2022-11-15T18:16:43.636Z,93151.00
2022-11-15T18:19:14.296Z,93140.00
2022-11-15T18:21:56.316Z,93138.00
2022-11-15T18:24:35.311Z,93136.00
2022-11-15T18:27:04.785Z,93132.00
2022-11-15T18:29:38.014Z,93130.00
2022-11-15T18:32:11.406Z,93128.00
2022-11-15T18:34:39.007Z,93123.00
2022-11-15T18:37:06.146Z,93119.00
2022-11-15T18:39:33.197Z,93118.00
2022-11-15T18:42:02.634Z,93121.00
2022-11-15T18:44:30.375Z,93117.00
2022-11-15T18:46:57.843Z,93112.00
2022-11-15T18:49:29.903Z,93111.00
2022-11-15T18:51:57.048Z,93100.00
2022-11-15T18:54:30.955Z,93100.00
2022-11-15T18:56:58.110Z,93091.00
2022-11-15T18:59:27.846Z,93088.00
2022-11-15T19:01:57.151Z,93093.00
2022-11-15T19:04:24.621Z,93078.00
2022-11-15T19:06:52.908Z,93069.00
2022-11-15T19:09:20.286Z,93067.00
2022-11-15T19:11:48.897Z,93071.00
2022-11-15T19:14:24.064Z,93061.00
2022-11-15T19:16:52.441Z,93063.00
2022-11-15T19:19:25.626Z,93054.00
2022-11-15T19:21:52.934Z,93054.00
2022-11-15T19:24:22.252Z,93046.00
2022-11-15T19:26:49.123Z,93038.00
2022-11-15T19:29:18.870Z,93039.00
2022-11-15T19:31:47.931Z,93038.00
2022-11-15T19:34:15.246Z,93031.00
2022-11-15T19:36:46.588Z,93031.00
2022-11-15T19:39:17.803Z,93025.00
2022-11-15T19:41:50.035Z,93022.00
2022-11-15T19:44:19.722Z,93022.00
2022-11-15T19:46:46.652Z,93015.00
2022-11-15T19:49:16.160Z,93018.00
2022-11-15T19:51:45.165Z,93010.00
2022-11-15T19:54:13.508Z,93010.00
2022-11-15T19:56:40.449Z,93006.00
2022-11-15T19:59:11.834Z,93006.00
2022-11-15T20:01:39.503Z,92998.00
2022-11-15T20:04:08.081Z,93006.00
2022-11-15T20:06:41.454Z,92997.00
2022-11-15T20:09:12.393Z,92996.00
2022-11-15T20:11:41.437Z,92988.00
2022-11-15T20:14:09.761Z,92996.00
2022-11-15T20:16:38.940Z,92988.00
2022-11-15T20:19:08.906Z,92994.00
2022-11-15T20:21:36.219Z,92989.00
2022-11-15T20:24:03.758Z,92988.00
2022-11-15T20:26:33.249Z,92985.00
2022-11-15T20:29:02.161Z,92988.00
2022-11-15T20:31:30.394Z,92989.00
2022-11-15T20:33:57.705Z,92988.00
2022-11-15T20:36:25.029Z,92986.00
2022-11-15T20:38:56.696Z,92985.00
2022-11-15T20:41:23.595Z,92981.00
2022-11-15T20:43:50.567Z,92981.00
2022-11-15T20:46:18.063Z,92979.00
2022-11-15T20:48:44.897Z,92979.00
2022-11-15T20:51:17.456Z,92973.00
2022-11-15T20:53:47.436Z,92966.00
2022-11-15T20:56:20.426Z,92974.00
2022-11-15T20:58:50.214Z,92977.00
2022-11-15T21:01:23.562Z,92960.00
2022-11-15T21:03:57.642Z,92957.00
2022-11-15T21:06:27.790Z,92961.00
2022-11-15T21:09:24.130Z,92955.00
2022-11-15T21:12:09.675Z,92951.00
2022-11-15T21:14:36.967Z,92950.00
2022-11-15T21:17:04.070Z,92953.00
2022-11-15T21:19:35.513Z,92952.00
2022-11-15T21:22:06.048Z,92947.00
2022-11-15T21:24:33.149Z,92952.00
2022-11-15T21:27:00.046Z,92945.00
2022-11-15T21:29:36.371Z,92954.00
2022-11-15T21:32:07.149Z,92945.00
2022-11-15T21:34:40.152Z,92953.00
2022-11-15T21:37:11.792Z,92951.00
2022-11-15T21:39:41.370Z,92919.00
2022-11-15T21:42:08.268Z,92946.00
2022-11-15T21:44:37.299Z,92955.00
2022-11-15T21:47:04.566Z,92956.00
2022-11-15T21:49:31.444Z,92959.00
2022-11-15T21:51:58.286Z,92948.00
2022-11-15T21:54:25.141Z,92953.00
2022-11-15T21:56:52.018Z,92959.00
2022-11-15T21:59:19.324Z,92966.00
2022-11-15T22:02:06.974Z,92960.00
2022-11-15T22:04:34.177Z,92962.00
2022-11-15T22:07:03.585Z,92963.00
2022-11-15T22:09:30.547Z,92951.00
2022-11-15T22:11:57.438Z,92958.00
2022-11-15T22:14:26.899Z,92956.00
2022-11-15T22:16:55.884Z,92961.00
2022-11-15T22:19:22.876Z,92968.00
2022-11-15T22:21:51.933Z,92968.00
2022-11-15T22:24:19.001Z,92967.00
2022-11-15T22:26:45.983Z,92957.00
2022-11-15T22:29:12.997Z,92961.00
2022-11-15T22:31:40.019Z,92952.00
2022-11-15T22:34:07.088Z,92944.00
2022-11-15T22:36:52.550Z,92948.00
2022-11-15T22:39:25.524Z,92959.00
2022-11-15T22:41:53.319Z,92961.00
2022-11-15T22:44:20.297Z,92959.00
2022-11-15T22:46:47.218Z,92950.00
2022-11-15T22:49:18.551Z,92955.00
2022-11-15T22:51:47.982Z,92959.00
2022-11-15T22:54:14.863Z,92950.00
2022-11-15T22:56:41.783Z,92960.00
2022-11-15T22:59:08.722Z,92958.00
2022-11-15T23:01:38.617Z,92958.00
2022-11-15T23:04:05.567Z,92955.00
2022-11-15T23:06:32.546Z,92953.00
2022-11-15T23:09:00.494Z,92953.00
2022-11-15T23:11:48.149Z,92950.00
2022-11-15T23:14:15.127Z,92950.00
2022-11-15T23:16:42.096Z,92950.00
2022-11-15T23:19:11.842Z,92948.00
2022-11-15T23:22:03.471Z,92953.00
2022-11-15T23:24:34.320Z,92943.00
2022-11-15T23:27:10.454Z,92939.00
2022-11-15T23:29:57.734Z,92944.00
2022-11-15T23:32:44.338Z,92947.00
2022-11-15T23:35:13.600Z,92932.00
2022-11-15T23:37:40.520Z,92932.00
2022-11-15T23:40:11.022Z,92940.00
2022-11-15T23:42:39.123Z,92929.00
2022-11-15T23:45:07.038Z,92924.00
2022-11-15T23:47:34.145Z,92932.00
2022-11-15T23:50:01.136Z,92929.00
2022-11-15T23:52:28.097Z,92917.00
2022-11-15T23:54:57.263Z,92911.00
2022-11-15T23:57:24.252Z,92914.00
2022-11-15T23:59:53.371Z,92914.00
